Integrity — WDF4881 — position and weather

sailwx.info

Track history (hours):
 
Tides and Currents Weather Stations Pressure Air Temp Water Temp Dewpoint Dewpoint Depression Visibility Wind Speed Wind Dir Waves Ship Positions

Integrity

Owner: Canal Barge Company, Inc., Belle Chasse, LA. More information available from US FCC via Universal Licensing System and Coast Guard Vessel Documentation Center.

Last reported at 2015-Mar-29 01:29 UTC. Time now 2015-Apr-02 07:56 UTC.
Position N 29°36' W 090°59'.

Length 19 m; draft 2.8 m.

Type: Towing. MMSI: 367456830.

Date/timePositionNaut miles runAvg speedWind from/ knotsBaromVisibWave heightAir tempDewpointWater temp
2015-Mar-29 01:29N 29°36' W 090°59'4 4.5
2015-Mar-29 00:33N 29°33' W 090°55'2 2.1
2015-Mar-28 23:30N 29°32' W 090°53'4 4.4
2015-Mar-28 22:33N 29°32' W 090°48'4 3.6
2015-Mar-28 21:33N 29°34' W 090°45'3 2.8
2015-Mar-28 20:33N 29°36' W 090°43'1 1.1
2015-Mar-28 19:33N 29°37' W 090°41'2 2.1
2015-Mar-28 18:32N 29°36' W 090°39'4 3.6
2015-Mar-28 17:33N 29°35' W 090°35'2 2.3
2015-Mar-28 16:33N 29°34' W 090°33'37 2.8
2015-Mar-28 03:16N 29°55' W 089°58'1 0.1
2015-Mar-27 15:05N 29°56' W 089°59'0 0.0
2015-Mar-27 13:33N 29°56' W 089°59'0 0.0
2015-Mar-27 12:29N 29°56' W 089°59'0 0.0
2015-Mar-27 11:32N 29°56' W 089°59'0 0.0
2015-Mar-27 10:28N 29°56' W 089°59'0 0.0
2015-Mar-27 09:32N 29°56' W 089°59'0 0.0
2015-Mar-27 08:30N 29°56' W 089°59'0 0.0
2015-Mar-27 07:31N 29°56' W 089°59'0 0.0
2015-Mar-27 06:28N 29°56' W 089°59'0 0.1
2015-Mar-27 05:18N 29°56' W 089°59'0 0.1
2015-Mar-27 04:32N 29°56' W 089°59'0 0.0
2015-Mar-27 03:31N 29°56' W 089°59'0 0.0
2015-Mar-27 02:33N 29°56' W 089°59'0 0.0
2015-Mar-27 01:33N 29°56' W 089°59'0 0.0
2015-Mar-27 00:33N 29°56' W 089°59'0 0.2
2015-Mar-26 23:33N 29°56' W 089°59'4 3.4
2015-Mar-26 22:29N 29°58' W 090°03'  
2015-Mar-20 14:10N 29°55' W 090°05'0 0.0
2015-Mar-20 13:27N 29°55' W 090°05'0 0.0
2015-Mar-20 12:29N 29°55' W 090°05'0 0.0
2015-Mar-20 11:32N 29°55' W 090°05'0 0.0
2015-Mar-20 10:30N 29°55' W 090°05'0 0.0
2015-Mar-20 09:30N 29°55' W 090°05'0 0.0
2015-Mar-20 08:33N 29°55' W 090°05'0 0.0
2015-Mar-20 07:33N 29°55' W 090°05'0 0.0
2015-Mar-20 06:33N 29°55' W 090°05'0 0.1
2015-Mar-20 05:31N 29°55' W 090°05'3 3.0
2015-Mar-20 04:33N 29°57' W 090°03'4 3.3
2015-Mar-20 03:25N 29°56' W 089°59'1 0.5
2015-Mar-20 01:15N 29°55' W 089°59'  
Track history (hours):
 
Tides and Currents Weather Stations Pressure Air Temp Water Temp Dewpoint Dewpoint Depression Visibility Wind Speed Wind Dir Waves Ship Positions

Integrity

Owner: Canal Barge Company, Inc., Belle Chasse, LA. More information available from US FCC via Universal Licensing System and Coast Guard Vessel Documentation Center.

Last reported at 2015-Mar-29 01:29 UTC. Time now 2015-Apr-02 07:56 UTC.
Position N 29°36' W 090°59'.

Length 19 m; draft 2.8 m.

Type: Towing. MMSI: 367456830.

Date/timePositionNaut miles runAvg speedWind from/ knotsBaromVisibWave heightAir tempDewpointWater temp
2015-Mar-29 01:29N 29°36' W 090°59'4 4.5
2015-Mar-29 00:33N 29°33' W 090°55'2 2.1
2015-Mar-28 23:30N 29°32' W 090°53'4 4.4
2015-Mar-28 22:33N 29°32' W 090°48'4 3.6
2015-Mar-28 21:33N 29°34' W 090°45'3 2.8
2015-Mar-28 20:33N 29°36' W 090°43'1 1.1
2015-Mar-28 19:33N 29°37' W 090°41'2 2.1
2015-Mar-28 18:32N 29°36' W 090°39'4 3.6
2015-Mar-28 17:33N 29°35' W 090°35'2 2.3
2015-Mar-28 16:33N 29°34' W 090°33'37 2.8
2015-Mar-28 03:16N 29°55' W 089°58'1 0.1
2015-Mar-27 15:05N 29°56' W 089°59'0 0.0
2015-Mar-27 13:33N 29°56' W 089°59'0 0.0
2015-Mar-27 12:29N 29°56' W 089°59'0 0.0
2015-Mar-27 11:32N 29°56' W 089°59'0 0.0
2015-Mar-27 10:28N 29°56' W 089°59'0 0.0
2015-Mar-27 09:32N 29°56' W 089°59'0 0.0
2015-Mar-27 08:30N 29°56' W 089°59'0 0.0
2015-Mar-27 07:31N 29°56' W 089°59'0 0.0
2015-Mar-27 06:28N 29°56' W 089°59'0 0.1
2015-Mar-27 05:18N 29°56' W 089°59'0 0.1
2015-Mar-27 04:32N 29°56' W 089°59'0 0.0
2015-Mar-27 03:31N 29°56' W 089°59'0 0.0
2015-Mar-27 02:33N 29°56' W 089°59'0 0.0
2015-Mar-27 01:33N 29°56' W 089°59'0 0.0
2015-Mar-27 00:33N 29°56' W 089°59'0 0.2
2015-Mar-26 23:33N 29°56' W 089°59'4 3.4
2015-Mar-26 22:29N 29°58' W 090°03'  
2015-Mar-20 14:10N 29°55' W 090°05'0 0.0
2015-Mar-20 13:27N 29°55' W 090°05'0 0.0
2015-Mar-20 12:29N 29°55' W 090°05'0 0.0
2015-Mar-20 11:32N 29°55' W 090°05'0 0.0
2015-Mar-20 10:30N 29°55' W 090°05'0 0.0
2015-Mar-20 09:30N 29°55' W 090°05'0 0.0
2015-Mar-20 08:33N 29°55' W 090°05'0 0.0
2015-Mar-20 07:33N 29°55' W 090°05'0 0.0
2015-Mar-20 06:33N 29°55' W 090°05'0 0.1
2015-Mar-20 05:31N 29°55' W 090°05'3 3.0
2015-Mar-20 04:33N 29°57' W 090°03'4 3.3
2015-Mar-20 03:25N 29°56' W 089°59'1 0.5
2015-Mar-20 01:15N 29°55' W 089°59'  

Dump ship's entire track history